Time;durP1;ratioP1;P1;durP2;ratioP2;P2;SDS_P1;SDS_P2;PMS_P1;PMS_P2;Temp;Humidity;BMP_temperature;BMP_pressure;BME280_temperature;BME280_humidity;BME280_pressure;Samples;Min_cycle;Max_cycle;Signal;HPM_P1;HPM_P2
2022/06/12 00:00:14;;;;;;;20.82;13.10;;;;;;;17.90;100.00;100525.89;1572212;90;20992;-85
2022/06/12 00:02:42;;;;;;;18.70;13.35;;;;;;;17.90;100.00;100516.67;1599110;89;21173;-85
2022/06/12 00:05:14;;;;;;;15.90;11.75;;;;;;;17.89;100.00;100519.45;1602319;88;21081;-85
2022/06/12 00:07:43;;;;;;;14.47;11.55;;;;;;;17.87;100.00;100520.94;1602526;88;21066;-86
2022/06/12 00:10:12;;;;;;;15.93;11.08;;;;;;;17.89;100.00;100520.28;1602496;88;21034;-85
2022/06/12 00:12:42;;;;;;;15.35;10.90;;;;;;;17.90;100.00;100514.03;1572669;91;21142;-87
2022/06/12 00:15:12;;;;;;;13.18;10.93;;;;;;;17.93;100.00;100511.05;1601737;89;21399;-85
2022/06/12 00:17:41;;;;;;;16.12;11.28;;;;;;;17.93;100.00;100515.51;1601788;89;21078;-85
2022/06/12 00:20:15;;;;;;;16.15;10.98;;;;;;;17.93;100.00;100505.78;1601815;89;21034;-85
2022/06/12 00:22:46;;;;;;;15.95;10.38;;;;;;;17.96;100.00;100512.08;1601691;89;21106;-85
2022/06/12 00:25:16;;;;;;;13.83;10.40;;;;;;;17.96;100.00;100513.88;1598219;89;21126;-87
2022/06/12 00:27:44;;;;;;;18.98;10.70;;;;;;;17.92;100.00;100510.72;1601829;89;21126;-85
2022/06/12 00:30:15;;;;;;;14.85;9.50;;;;;;;17.87;100.00;100510.41;1601502;89;21595;-86
2022/06/12 00:32:44;;;;;;;;;;;;;;;17.85;100.00;100512.88;1618428;88;21042;-85
2022/06/12 00:35:12;;;;;;;11.28;8.93;;;;;;;17.84;100.00;100508.09;1649695;86;20448;-85
2022/06/12 00:37:39;;;;;;;16.30;10.05;;;;;;;17.82;100.00;100505.63;1649746;86;21043;-86
2022/06/12 00:40:09;;;;;;;12.60;9.13;;;;;;;17.81;100.00;100500.54;1649683;87;21007;-85
2022/06/12 00:42:43;;;;;;;12.23;9.55;;;;;;;17.78;100.00;100504.81;1649671;87;21019;-84
2022/06/12 00:45:34;;;;;;;13.98;9.20;;;;;;;17.76;100.00;100498.88;1645238;87;21086;-85
2022/06/12 00:48:06;;;;;;;14.20;9.70;;;;;;;17.73;100.00;100498.72;1647835;87;21115;-85
2022/06/12 00:50:37;;;;;;;9.83;8.80;;;;;;;17.70;100.00;100492.96;1645922;87;21122;-85
2022/06/12 00:53:07;;;;;;;14.47;10.05;;;;;;;17.66;100.00;100499.05;1646281;87;21464;-84
2022/06/12 00:55:51;;;;;;;13.85;9.68;;;;;;;17.61;100.00;100494.78;1649857;87;21050;-85
2022/06/12 00:58:22;;;;;;;11.65;9.75;;;;;;;17.58;100.00;100503.00;1608285;89;21493;-86
2022/06/12 01:00:50;;;;;;;15.47;10.47;;;;;;;17.53;100.00;100501.36;1611524;89;21567;-85
2022/06/12 01:03:19;;;;;;;14.58;10.43;;;;;;;17.49;100.00;100494.28;1610750;89;21294;-85
2022/06/12 01:08:35;;;;;;;16.23;10.32;;;;;;;17.37;100.00;100492.47;1611012;89;21085;-84
2022/06/12 01:11:06;;;;;;;12.98;10.60;;;;;;;17.27;100.00;100485.21;1611162;89;21085;-88
2022/06/12 01:13:40;;;;;;;13.22;10.13;;;;;;;17.19;100.00;100489.95;1611270;87;21524;-87
2022/06/12 01:16:16;;;;;;;13.25;9.78;;;;;;;17.11;100.00;100493.88;1570221;91;21518;-84
2022/06/12 01:18:50;;;;;;;14.75;11.85;;;;;;;17.05;100.00;100494.06;1597792;89;21283;-85
2022/06/12 01:21:48;;;;;;;14.93;9.85;;;;;;;17.05;100.00;100486.64;1602326;87;21155;-85
2022/06/12 01:24:44;;;;;;;12.40;9.98;;;;;;;17.07;100.00;100493.89;1598555;89;21038;-85
2022/06/12 01:27:35;;;;;;;13.20;9.80;;;;;;;17.13;100.00;100487.98;1591767;88;21109;-85
2022/06/12 01:30:11;;;;;;;11.65;9.68;;;;;;;17.21;100.00;100488.50;1600981;89;21046;-85
2022/06/12 01:33:02;;;;;;;14.45;9.90;;;;;;;17.26;100.00;100487.51;1580718;88;21191;-84
2022/06/12 01:35:46;;;;;;;15.55;10.35;;;;;;;17.32;100.00;100486.85;1599329;88;21007;-85
2022/06/12 01:38:25;;;;;;;12.85;10.30;;;;;;;17.37;100.00;100487.68;1602599;88;21091;-85
2022/06/12 01:41:03;;;;;;;12.13;9.95;;;;;;;17.39;100.00;100484.41;1602753;88;21110;-85
2022/06/12 01:43:42;;;;;;;15.30;9.78;;;;;;;17.38;100.00;100485.38;1601390;89;21082;-85
2022/06/12 01:46:20;;;;;;;11.45;9.13;;;;;;;17.34;100.00;100487.05;1599159;89;21176;-84
2022/06/12 01:49:08;;;;;;;11.43;9.90;;;;;;;17.28;100.00;100486.35;1601761;88;21082;-85
2022/06/12 01:51:46;;;;;;;13.38;9.93;;;;;;;17.25;100.00;100485.86;1599560;89;21692;-84
2022/06/12 01:54:43;;;;;;;14.07;9.20;;;;;;;17.25;100.00;100486.70;1602334;88;21011;-84
2022/06/12 01:57:35;;;;;;;14.47;10.13;;;;;;;17.25;100.00;100487.17;1602144;89;21074;-84
2022/06/12 02:00:08;;;;;;;19.07;14.15;;;;;;;17.25;100.00;100492.44;1597304;89;21275;-89
2022/06/12 02:03:01;;;;;;;15.85;11.97;;;;;;;17.22;100.00;100528.30;1601399;88;21101;-85
2022/06/12 02:05:58;;;;;;;15.88;12.58;;;;;;;17.09;100.00;100503.77;1602397;88;21010;-87
2022/06/12 02:08:38;;;;;;;14.80;12.43;;;;;;;17.03;100.00;100508.66;1602444;88;21106;-91
2022/06/12 02:14:27;;;;;;;17.48;14.18;;;;;;;17.02;100.00;100510.96;1606358;88;21167;-85
2022/06/12 02:16:58;;;;;;;19.15;13.62;;;;;;;16.98;100.00;100504.89;1652020;86;21034;-85
2022/06/12 02:19:33;;;;;;;17.02;12.95;;;;;;;16.94;100.00;100514.91;1652229;86;21587;-85
2022/06/12 02:22:18;;;;;;;18.95;13.60;;;;;;;16.96;100.00;100508.98;1649301;86;21057;-85
2022/06/12 02:24:54;;;;;;;18.70;15.65;;;;;;;17.00;100.00;100506.38;1650277;86;21105;-86
2022/06/12 02:27:44;;;;;;;21.95;15.80;;;;;;;17.06;100.00;100506.23;1649521;86;22075;-85
2022/06/12 02:30:23;;;;;;;17.98;14.75;;;;;;;17.08;100.00;100508.69;1649312;86;21686;-85
2022/06/12 02:33:04;;;;;;;16.90;14.38;;;;;;;17.03;100.00;100509.17;1649273;86;21062;-85
2022/06/12 02:35:43;;;;;;;20.12;14.47;;;;;;;17.00;100.00;100509.00;1652111;86;21106;-85
2022/06/12 02:38:46;;;;;;;17.00;13.78;;;;;;;17.03;100.00;100514.43;1649614;86;21038;-87
2022/06/12 02:41:30;;;;;;;17.93;14.07;;;;;;;17.02;100.00;100507.52;1651756;86;21809;-85
2022/06/12 02:44:02;;;;;;;16.93;15.05;;;;;;;17.03;100.00;100511.30;1619826;88;21057;-84
2022/06/12 02:46:49;;;;;;;20.62;14.53;;;;;;;17.08;100.00;100511.32;1620334;88;21084;-85
2022/06/12 02:49:18;;;;;;;17.57;14.40;;;;;;;17.09;100.00;100506.40;1621011;87;21033;-85
2022/06/12 02:51:57;;;;;;;19.92;15.72;;;;;;;17.15;100.00;100514.95;1652119;86;21073;-84
2022/06/12 02:54:48;;;;;;;20.70;15.32;;;;;;;17.22;100.00;100514.64;1652306;86;21231;-85
2022/06/12 02:57:42;;;;;;;25.45;17.95;;;;;;;17.26;100.00;100509.40;1649466;86;21620;-84
2022/06/12 03:00:27;;;;;;;19.92;15.18;;;;;;;17.31;100.00;100508.41;1652111;86;21081;-85
2022/06/12 03:03:34;;;;;;;20.60;17.32;;;;;;;17.37;100.00;100511.36;1650553;86;21030;-84
2022/06/12 03:06:02;;;;;;;25.32;17.62;;;;;;;17.42;100.00;100507.27;1652003;86;21070;-85
2022/06/12 03:08:36;;;;;;;23.52;17.95;;;;;;;17.49;100.00;100505.63;1652015;86;21221;-85
2022/06/12 03:11:33;;;;;;;23.62;18.98;;;;;;;17.55;100.00;100509.42;1616868;88;21570;-90
2022/06/12 03:14:09;;;;;;;23.20;19.42;;;;;;;17.61;100.00;100505.31;1617997;88;21076;-85
2022/06/12 03:16:41;;;;;;;23.98;18.87;;;;;;;17.69;100.00;100499.21;1610294;89;20990;-88
2022/06/12 03:19:26;;;;;;;20.88;18.20;;;;;;;17.75;100.00;100501.17;1610792;89;21076;-90
2022/06/12 03:22:15;;;;;;;22.60;17.90;;;;;;;17.80;100.00;100503.65;1610888;89;21053;-84
2022/06/12 03:24:57;;;;;;;22.05;17.65;;;;;;;17.88;100.00;100502.83;1610143;89;21678;-85
2022/06/12 03:28:03;;;;;;;22.52;17.60;;;;;;;17.94;100.00;100500.84;1610090;89;21106;-85
2022/06/12 03:30:48;;;;;;;17.95;15.95;;;;;;;18.04;100.00;100504.64;1610999;89;21074;-85
2022/06/12 03:33:37;;;;;;;21.12;16.55;;;;;;;18.13;100.00;100509.42;1607871;89;21045;-85
2022/06/12 03:36:19;;;;;;;22.25;17.82;;;;;;;18.21;100.00;100509.41;1607723;89;21229;-85
2022/06/12 03:39:12;;;;;;;23.27;19.35;;;;;;;18.29;100.00;100501.48;1607724;89;21121;-85
2022/06/12 03:41:56;;;;;;;22.75;18.82;;;;;;;18.40;100.00;100502.09;1578470;89;21002;-85
2022/06/12 03:44:50;;;;;;;26.37;21.30;;;;;;;18.49;100.00;100501.08;1614892;87;21089;-85
2022/06/12 03:47:30;;;;;;;24.52;21.70;;;;;;;18.60;100.00;100499.39;1649765;86;21082;-85
2022/06/12 03:50:04;;;;;;;27.20;22.55;;;;;;;18.72;100.00;100497.68;1648043;87;21287;-86
2022/06/12 03:52:45;;;;;;;24.92;21.40;;;;;;;18.81;100.00;100503.25;1639460;87;21062;-86
2022/06/12 03:58:22;;;;;;;27.45;23.07;;;;;;;18.98;100.00;100490.00;1634130;87;21114;-86
2022/06/12 04:00:52;;;;;;;26.85;22.98;;;;;;;19.09;100.00;100492.27;1630141;87;21177;-85
2022/06/12 04:03:30;;;;;;;31.70;24.60;;;;;;;19.19;100.00;100488.88;1632178;87;21123;-85
2022/06/12 04:06:02;;;;;;;28.02;22.42;;;;;;;19.29;100.00;100489.98;1630468;87;21093;-85
2022/06/12 04:08:43;;;;;;;26.35;23.22;;;;;;;19.39;100.00;100487.91;1630420;87;21152;-89
2022/06/12 04:11:13;;;;;;;30.32;22.62;;;;;;;19.48;100.00;100490.48;1629864;87;21329;-85
2022/06/12 04:13:42;;;;;;;25.45;22.75;;;;;;;19.56;100.00;100483.83;1632342;87;21113;-85
2022/06/12 04:16:37;;;;;;;27.25;21.82;;;;;;;19.62;100.00;100484.45;1633943;87;21474;-91
2022/06/12 04:19:09;;;;;;;26.62;22.75;;;;;;;19.69;100.00;100485.86;1635429;86;21034;-86
2022/06/12 04:21:41;;;;;;;28.27;22.62;;;;;;;19.76;100.00;100484.15;1613097;87;21113;-84
2022/06/12 04:24:33;;;;;;;25.20;22.50;;;;;;;19.83;100.00;100474.50;1614144;88;21140;-85
2022/06/12 04:27:21;;;;;;;24.47;21.68;;;;;;;19.98;100.00;100479.85;1613489;87;21155;-85
2022/06/12 04:30:00;;;;;;;25.25;21.75;;;;;;;20.16;100.00;100481.33;1613951;88;22066;-85
2022/06/12 04:32:29;;;;;;;25.68;22.05;;;;;;;20.39;100.00;100477.77;1616546;88;21032;-85
2022/06/12 04:34:56;;;;;;;27.45;22.42;;;;;;;20.59;100.00;100480.66;1616870;88;21068;-85
2022/06/12 04:37:31;;;;;;;26.02;23.18;;;;;;;20.80;100.00;100479.41;1616387;87;21006;-85
2022/06/12 04:40:04;;;;;;;24.82;22.20;;;;;;;20.96;100.00;100482.34;1616626;88;21104;-88
2022/06/12 04:42:33;;;;;;;26.82;21.82;;;;;;;21.10;100.00;100483.31;1616537;88;21196;-86
2022/06/12 04:45:05;;;;;;;25.02;22.37;;;;;;;21.24;100.00;100482.11;1616705;88;21081;-86
2022/06/12 04:47:32;;;;;;;30.23;24.80;;;;;;;21.38;100.00;100477.77;1629079;87;21045;-85
2022/06/12 04:50:00;;;;;;;27.13;24.40;;;;;;;21.48;100.00;100474.27;1629174;87;21591;-85
2022/06/12 04:52:27;;;;;;;25.72;22.98;;;;;;;21.57;100.00;100471.84;1617603;88;21639;-85
2022/06/12 04:54:55;;;;;;;31.68;25.08;;;;;;;21.68;100.00;100473.14;1617497;88;21167;-85
2022/06/12 04:57:25;;;;;;;27.95;24.60;;;;;;;21.82;100.00;100474.58;1617416;88;21529;-85
2022/06/12 04:59:52;;;;;;;27.20;24.32;;;;;;;21.96;100.00;100468.34;1617366;88;21047;-85
2022/06/12 05:02:20;;;;;;;26.95;23.60;;;;;;;22.12;100.00;100474.36;1617748;88;21572;-85
2022/06/12 05:04:47;;;;;;;28.50;24.85;;;;;;;22.28;100.00;100469.22;1615624;88;21649;-85
2022/06/12 05:07:15;;;;;;;30.30;23.52;;;;;;;22.42;100.00;100467.49;1611050;87;21168;-86
2022/06/12 05:09:42;;;;;;;27.58;23.20;;;;;;;22.55;100.00;100461.42;1593131;88;21107;-87
2022/06/12 05:12:12;;;;;;;28.80;25.35;;;;;;;22.71;100.00;100458.95;1593400;89;22117;-85
2022/06/12 05:14:43;;;;;;;31.87;25.50;;;;;;;22.86;100.00;100463.58;1593241;88;21107;-85
2022/06/12 05:17:14;;;;;;;28.55;25.27;;;;;;;23.04;100.00;100463.48;1593336;89;21083;-86
2022/06/12 05:19:44;;;;;;;30.00;26.75;;;;;;;23.18;100.00;100462.55;1593419;90;22825;-85
2022/06/12 05:22:13;;;;;;;32.33;26.27;;;;;;;23.33;100.00;100462.34;1609161;88;21065;-85
2022/06/12 05:24:41;;;;;;;33.13;25.68;;;;;;;23.46;100.00;100455.72;1620194;88;20990;-85
2022/06/12 05:27:14;;;;;;;31.90;25.88;;;;;;;23.59;100.00;100455.39;1620385;88;21124;-85
2022/06/12 05:29:41;;;;;;;31.07;25.80;;;;;;;23.76;100.00;100459.77;1617194;88;21113;-89
2022/06/12 05:32:13;;;;;;;31.87;25.57;;;;;;;23.92;100.00;100455.34;1619430;88;21134;-91
2022/06/12 05:34:42;;;;;;;30.88;25.97;;;;;;;24.06;100.00;100455.36;1615233;88;21068;-87
2022/06/12 05:37:10;;;;;;;28.20;25.25;;;;;;;24.19;100.00;100450.52;1616606;88;21054;-86
2022/06/12 05:39:38;;;;;;;28.15;25.12;;;;;;;24.30;100.00;100455.17;1615457;88;21002;-86
2022/06/12 05:42:07;;;;;;;28.70;25.52;;;;;;;24.38;100.00;100446.14;1614155;88;21046;-85
2022/06/12 05:44:35;;;;;;;27.32;24.23;;;;;;;24.47;100.00;100443.55;1629872;86;21238;-86
2022/06/12 05:47:03;;;;;;;28.45;24.82;;;;;;;24.57;100.00;100443.89;1632891;86;21036;-86
2022/06/12 05:49:31;;;;;;;26.25;23.30;;;;;;;24.70;100.00;100440.91;1606950;87;21058;-86
2022/06/12 05:51:59;;;;;;;27.10;23.95;;;;;;;24.80;100.00;100435.91;1629280;87;21020;-85
2022/06/12 05:54:26;;;;;;;32.58;24.90;;;;;;;24.94;100.00;100437.18;1631180;86;21514;-85
2022/06/12 05:56:55;;;;;;;27.00;24.18;;;;;;;25.01;100.00;100433.42;1617722;87;21189;-86
2022/06/12 05:59:23;;;;;;;29.70;23.35;;;;;;;25.10;100.00;100430.00;1615255;87;21054;-85
2022/06/12 06:01:50;;;;;;;24.82;22.02;;;;;;;25.19;100.00;100428.70;1613104;88;21090;-90
2022/06/12 06:04:17;;;;;;;25.12;22.60;;;;;;;25.32;100.00;100428.28;1615519;87;21011;-85
2022/06/12 06:06:50;;;;;;;30.60;23.35;;;;;;;25.46;100.00;100418.36;1615727;88;20985;-85
2022/06/12 06:09:18;;;;;;;26.33;22.17;;;;;;;25.64;100.00;100417.57;1617594;87;21157;-85
2022/06/12 06:11:47;;;;;;;21.05;18.87;;;;;;;25.81;100.00;100415.96;1613219;88;21078;-85
2022/06/12 06:14:15;;;;;;;29.45;21.00;;;;;;;25.98;100.00;100415.38;1641062;87;21516;-86
2022/06/12 06:16:42;;;;;;;26.10;21.25;;;;;;;26.16;100.00;100411.10;1641375;87;21236;-86
2022/06/12 06:19:11;;;;;;;25.72;20.92;;;;;;;26.33;100.00;100406.75;1652181;85;21031;-86
2022/06/12 06:21:40;;;;;;;22.17;19.50;;;;;;;26.52;100.00;100406.19;1653659;86;21204;-85
2022/06/12 06:24:10;;;;;;;24.75;21.97;;;;;;;26.70;100.00;100400.50;1653755;86;20967;-85
2022/06/12 06:26:39;;;;;;;24.10;19.48;;;;;;;26.86;100.00;100401.22;1628634;88;21034;-85
2022/06/12 06:29:06;;;;;;;24.35;20.00;;;;;;;27.01;100.00;100406.14;1617274;88;21091;-85
2022/06/12 06:31:33;;;;;;;23.90;19.73;;;;;;;27.12;100.00;100395.70;1617048;88;21067;-86
2022/06/12 06:34:02;;;;;;;20.72;18.20;;;;;;;27.25;100.00;100396.81;1617050;88;21187;-87
2022/06/12 06:36:36;;;;;;;21.45;16.40;;;;;;;27.37;100.00;100397.61;1616965;88;21051;-86
2022/06/12 06:39:06;;;;;;;18.65;14.23;;;;;;;27.50;100.00;100398.47;1617494;88;21059;-87
2022/06/12 06:41:34;;;;;;;17.90;15.23;;;;;;;27.63;100.00;100400.09;1617710;88;21074;-88
2022/06/12 06:46:49;;;;;;;18.90;17.05;;;;;;;27.81;100.00;100397.78;1617142;88;21866;-86
2022/06/12 06:49:16;;;;;;;21.73;16.32;;;;;;;27.91;100.00;100399.85;1637846;86;21060;-86
2022/06/12 06:51:44;;;;;;;22.13;14.83;;;;;;;28.00;100.00;100401.91;1641383;86;21050;-89
2022/06/12 06:54:11;;;;;;;19.27;15.23;;;;;;;28.12;100.00;100396.55;1641149;87;21034;-86
2022/06/12 06:56:38;;;;;;;21.95;15.85;;;;;;;28.23;100.00;100401.61;1623192;87;21000;-86
2022/06/12 06:59:06;;;;;;;21.12;15.83;;;;;;;28.31;100.00;100404.41;1613577;87;21237;-86
2022/06/12 07:01:34;;;;;;;17.85;15.23;;;;;;;28.37;100.00;100404.79;1617323;87;21037;-90
2022/06/12 07:04:03;;;;;;;20.17;15.03;;;;;;;28.48;100.00;100400.46;1615530;88;21552;-85
2022/06/12 07:06:32;;;;;;;15.50;13.75;;;;;;;28.60;100.00;100405.22;1613932;88;21516;-86
2022/06/12 07:09:00;;;;;;;19.27;15.40;;;;;;;28.68;100.00;100404.53;1606194;87;21125;-86
2022/06/12 07:11:28;;;;;;;17.77;15.45;;;;;;;28.74;100.00;100405.77;1597467;87;21898;-84
2022/06/12 07:13:57;;;;;;;16.85;14.90;;;;;;;28.77;100.00;100401.24;1629630;86;21638;-84
2022/06/12 07:16:26;;;;;;;17.20;14.05;;;;;;;28.77;100.00;100395.89;1609303;87;21030;-85
2022/06/12 07:18:54;;;;;;;18.32;14.50;;;;;;;28.74;100.00;100395.05;1619837;87;21045;-86
2022/06/12 07:21:21;;;;;;;18.70;15.18;;;;;;;28.64;100.00;100402.87;1619912;87;21132;-84
2022/06/12 07:23:48;;;;;;;16.07;14.50;;;;;;;28.55;100.00;100396.28;1615169;87;21172;-84
2022/06/12 07:26:23;;;;;;;15.80;14.00;;;;;;;28.60;100.00;100393.17;1610051;87;21733;-84
2022/06/12 07:28:50;;;;;;;16.85;14.45;;;;;;;28.77;100.00;100391.07;1610389;86;21108;-85
2022/06/12 07:31:19;;;;;;;14.73;13.13;;;;;;;29.02;100.00;100389.32;1606302;87;21037;-85
2022/06/12 07:33:48;;;;;;;15.35;13.75;;;;;;;29.25;100.00;100387.52;1606131;88;21045;-85
2022/06/12 07:36:17;;;;;;;12.28;10.63;;;;;;;29.39;100.00;100383.48;1606130;88;21789;-84
2022/06/12 07:38:48;;;;;;;14.63;10.98;;;;;;;29.49;99.55;100390.02;1599780;89;21081;-84
2022/06/12 07:41:18;;;;;;;13.35;11.95;;;;;;;29.52;95.72;100378.30;1607227;88;21535;-84
2022/06/12 07:43:47;;;;;;;15.50;12.43;;;;;;;29.56;94.11;100384.77;1604645;88;21070;-86
2022/06/12 07:46:18;;;;;;;11.15;8.90;;;;;;;29.56;98.96;100382.09;1607325;89;21048;-84
2022/06/12 07:48:48;;;;;;;9.95;8.43;;;;;;;29.63;88.17;100385.12;1605397;88;21042;-84
2022/06/12 07:51:19;;;;;;;10.80;9.43;;;;;;;29.66;82.03;100380.61;1607226;88;21558;-84
2022/06/12 07:53:48;;;;;;;12.73;10.75;;;;;;;29.67;84.73;100384.92;1607469;88;21089;-84
2022/06/12 07:56:18;;;;;;;12.05;9.35;;;;;;;29.64;87.23;100382.72;1604918;89;21536;-85
2022/06/12 07:58:45;;;;;;;10.95;9.85;;;;;;;29.71;91.05;100377.47;1607310;88;21125;-84
2022/06/12 08:01:22;;;;;;;9.88;8.78;;;;;;;29.86;93.15;100378.17;1607444;88;21112;-87
2022/06/12 08:03:49;;;;;;;13.40;9.30;;;;;;;30.03;78.64;100378.66;1607345;88;21057;-83
2022/06/12 08:06:17;;;;;;;13.50;9.18;;;;;;;30.14;78.95;100378.23;1607616;88;21468;-84
2022/06/12 08:08:47;;;;;;;8.85;7.90;;;;;;;30.18;78.08;100374.80;1631960;86;21085;-84
2022/06/12 08:11:15;;;;;;;7.97;7.15;;;;;;;30.27;73.58;100373.83;1641092;86;21069;-85
2022/06/12 08:13:42;;;;;;;19.52;9.80;;;;;;;30.36;68.68;100376.86;1641249;86;21150;-84
2022/06/12 08:16:11;;;;;;;11.90;9.13;;;;;;;30.47;68.82;100367.84;1640598;86;21199;-85
2022/06/12 08:18:40;;;;;;;13.32;10.43;;;;;;;30.63;62.40;100373.39;1636367;86;21525;-84
2022/06/12 08:21:12;;;;;;;10.45;9.35;;;;;;;30.76;59.05;100374.84;1636031;87;21066;-84
2022/06/12 08:23:48;;;;;;;13.98;11.45;;;;;;;30.90;59.34;100369.30;1636388;87;21113;-84
2022/06/12 08:26:19;;;;;;;14.15;11.85;;;;;;;31.04;59.06;100360.78;1634503;87;21234;-84
2022/06/12 08:28:53;;;;;;;15.13;11.00;;;;;;;31.19;61.17;100363.59;1636302;86;21463;-85
2022/06/12 08:31:31;;;;;;;14.85;11.03;;;;;;;31.34;60.66;100362.89;1636094;86;21555;-88
2022/06/12 08:34:03;;;;;;;12.50;11.25;;;;;;;31.41;60.28;100362.12;1637204;86;20994;-85
2022/06/12 08:36:31;;;;;;;12.73;11.43;;;;;;;31.45;63.10;100357.02;1634469;86;21061;-84
2022/06/12 08:38:59;;;;;;;13.72;11.10;;;;;;;31.50;60.38;100357.03;1636538;86;21096;-84
2022/06/12 08:41:39;;;;;;;14.75;11.12;;;;;;;31.63;61.23;100357.92;1636340;87;21075;-85
2022/06/12 08:44:18;;;;;;;11.45;10.35;;;;;;;31.75;60.16;100348.31;1635528;87;21042;-85
2022/06/12 08:47:12;;;;;;;10.77;9.67;;;;;;;31.85;58.05;100348.08;1614969;86;21054;-84
2022/06/12 08:50:12;;;;;;;11.08;9.53;;;;;;;31.95;61.04;100340.00;1636285;86;21041;-86
2022/06/12 08:52:59;;;;;;;15.45;9.68;;;;;;;31.87;57.16;100336.48;1635806;86;21810;-85
2022/06/12 08:55:47;;;;;;;12.07;9.78;;;;;;;31.50;56.85;100338.20;1632897;87;21022;-84
2022/06/12 08:58:32;;;;;;;11.28;9.40;;;;;;;31.11;58.50;100336.68;1634030;86;21042;-84
2022/06/12 09:01:00;;;;;;;11.15;8.73;;;;;;;30.76;60.54;100329.95;1634024;86;21529;-84
2022/06/12 09:03:32;;;;;;;13.70;9.63;;;;;;;30.60;64.93;100324.19;1636293;86;21093;-83
2022/06/12 09:06:06;;;;;;;10.35;9.25;;;;;;;30.61;65.14;100319.09;1634194;86;21089;-85
2022/06/12 09:09:06;;;;;;;15.23;10.60;;;;;;;30.67;64.68;100318.06;1634315;87;21457;-85
2022/06/12 09:12:08;;;;;;;12.13;10.82;;;;;;;30.84;67.17;100314.70;1633765;86;21077;-84
2022/06/12 09:14:51;;;;;;;13.25;11.20;;;;;;;31.25;61.77;100317.39;1636269;86;21062;-85
2022/06/12 09:17:44;;;;;;;12.65;11.00;;;;;;;31.63;59.91;100314.05;1632552;86;21070;-84
2022/06/12 09:20:39;;;;;;;11.22;9.70;;;;;;;31.82;59.34;100317.09;1636534;86;21182;-83
2022/06/12 09:23:39;;;;;;;11.15;9.65;;;;;;;31.74;61.89;100314.39;1636647;87;21577;-83
2022/06/12 09:26:20;;;;;;;10.35;9.28;;;;;;;31.21;65.79;100313.61;1634377;86;21548;-83
2022/06/12 09:29:17;;;;;;;10.38;9.38;;;;;;;30.40;70.43;100309.50;1634037;86;21026;-83
2022/06/12 09:31:55;;;;;;;15.20;8.95;;;;;;;29.80;74.48;100303.25;1635715;86;21023;-83
2022/06/12 09:34:50;;;;;;;13.18;9.78;;;;;;;29.40;87.02;100302.50;1631118;86;21640;-83
2022/06/12 09:40:22;;;;;;;14.28;9.83;;;;;;;29.14;97.95;100293.28;1636628;86;21042;-84
2022/06/12 09:42:57;;;;;;;10.53;9.20;;;;;;;28.96;100.00;100299.20;1633943;86;21627;-83
2022/06/12 09:45:38;;;;;;;13.28;10.40;;;;;;;28.73;100.00;100296.16;1636716;87;21081;-83
2022/06/12 09:48:20;;;;;;;15.50;11.03;;;;;;;28.46;100.00;100290.91;1632541;86;21192;-83
2022/06/12 09:51:14;;;;;;;11.90;10.03;;;;;;;28.21;100.00;100292.62;1636351;86;21824;-85
2022/06/12 09:53:52;;;;;;;12.73;10.15;;;;;;;27.93;100.00;100293.42;1595213;89;21104;-83
2022/06/12 09:56:44;;;;;;;12.20;10.82;;;;;;;27.65;100.00;100288.33;1598470;89;21091;-83
2022/06/12 09:59:38;;;;;;;13.20;11.15;;;;;;;27.45;100.00;100279.38;1600579;88;21064;-86
2022/06/12 10:02:29;;;;;;;12.23;10.93;;;;;;;27.25;100.00;100277.88;1597553;89;21163;-84
2022/06/12 10:05:27;;;;;;;13.93;12.10;;;;;;;27.12;100.00;100267.45;1562385;88;21575;-84
2022/06/12 10:08:14;;;;;;;13.03;11.68;;;;;;;27.07;100.00;100266.81;1597831;89;21035;-83
2022/06/12 10:11:01;;;;;;;11.75;9.95;;;;;;;27.11;100.00;100264.48;1597756;88;21049;-83
2022/06/12 10:13:34;;;;;;;12.80;11.48;;;;;;;27.35;100.00;100261.23;1594853;89;20991;-84
2022/06/12 10:16:08;;;;;;;13.00;11.03;;;;;;;27.91;100.00;100264.24;1598082;88;21080;-84
2022/06/12 10:18:43;;;;;;;11.28;10.15;;;;;;;28.54;100.00;100253.55;1601043;89;21122;-84
2022/06/12 10:21:14;;;;;;;10.20;9.13;;;;;;;29.13;100.00;100256.27;1604730;88;21117;-83
2022/06/12 10:23:42;;;;;;;10.85;9.75;;;;;;;29.43;100.00;100257.77;1605736;88;21112;-87
2022/06/12 10:26:26;;;;;;;11.65;9.93;;;;;;;29.53;100.00;100246.34;1607080;88;21121;-85
2022/06/12 10:29:11;;;;;;;11.40;9.98;;;;;;;29.50;100.00;100242.81;1607161;88;21655;-84
2022/06/12 10:32:01;;;;;;;10.53;8.70;;;;;;;29.46;100.00;100230.44;1607240;87;21018;-83
2022/06/12 10:34:32;;;;;;;13.80;10.35;;;;;;;29.42;100.00;100229.33;1607900;89;21492;-83
2022/06/12 10:37:22;;;;;;;11.05;10.05;;;;;;;29.44;100.00;100224.53;1604695;88;21138;-84
2022/06/12 10:40:08;;;;;;;13.55;10.05;;;;;;;29.59;100.00;100214.48;1578151;89;21254;-84
2022/06/12 10:42:43;;;;;;;10.58;9.03;;;;;;;29.98;100.00;100214.91;1586261;88;21220;-86
2022/06/12 10:45:30;;;;;;;13.43;9.60;;;;;;;30.25;100.00;100220.22;1605602;88;20978;-84
2022/06/12 10:48:05;;;;;;;11.40;8.53;;;;;;;30.34;100.00;100215.17;1607477;88;21572;-83
2022/06/12 10:50:37;;;;;;;14.35;8.55;;;;;;;30.32;100.00;100227.53;1604696;88;21065;-85
2022/06/12 10:53:12;;;;;;;12.63;9.38;;;;;;;30.30;100.00;100230.20;1607247;89;21116;-84
2022/06/12 10:56:01;;;;;;;11.88;8.98;;;;;;;30.25;92.13;100235.51;1607577;88;21828;-85
2022/06/12 10:58:48;;;;;;;15.70;9.90;;;;;;;30.21;90.67;100237.89;1604743;88;21453;-83
2022/06/12 11:01:30;;;;;;;10.30;9.28;;;;;;;30.08;88.32;100225.73;1607116;88;21068;-84
2022/06/12 11:04:21;;;;;;;13.18;9.78;;;;;;;29.96;90.34;100219.19;1604841;88;21029;-84
2022/06/12 11:07:05;;;;;;;13.18;9.75;;;;;;;29.83;82.50;100210.98;1579334;89;21158;-84
2022/06/12 11:10:00;;;;;;;12.78;10.28;;;;;;;29.68;76.82;100200.91;1572447;90;21941;-86
2022/06/12 11:12:45;;;;;;;12.85;9.85;;;;;;;29.53;75.72;100207.45;1600075;89;21050;-83
2022/06/12 11:15:34;;;;;;;10.93;9.43;;;;;;;29.38;80.93;100204.06;1607415;87;21030;-83
2022/06/12 11:18:28;;;;;;;8.75;7.87;;;;;;;29.15;85.88;100211.28;1578704;89;21068;-84
2022/06/12 11:21:18;;;;;;;12.85;8.25;;;;;;;28.76;89.09;100208.09;1576457;90;21589;-84
2022/06/12 11:24:24;;;;;;;9.65;8.33;;;;;;;28.35;89.95;100214.17;1581049;90;21239;-84
2022/06/12 11:27:13;;;;;;;9.85;7.10;;;;;;;28.00;91.35;100221.31;1602331;89;21054;-83
2022/06/12 11:30:15;;;;;;;8.50;7.45;;;;;;;27.66;96.77;100243.98;1607612;88;21021;-84
2022/06/12 11:33:21;;;;;;;14.47;10.93;;;;;;;27.33;100.00;100270.01;1590565;88;21121;-83
2022/06/12 11:36:07;;;;;;;12.23;8.00;;;;;;;26.83;100.00;100274.83;1607159;88;21072;-85
2022/06/12 11:38:59;;;;;;;8.95;8.15;;;;;;;26.26;100.00;100264.60;1606859;88;21217;-86
2022/06/12 11:41:45;;;;;;;9.73;6.87;;;;;;;25.87;100.00;100252.92;1640747;87;21813;-82
2022/06/12 11:44:45;;;;;;;8.40;7.12;;;;;;;25.48;100.00;100280.34;1636144;87;21062;-86
2022/06/12 11:47:36;;;;;;;8.78;7.40;;;;;;;25.01;100.00;100280.81;1624197;87;21086;-82
2022/06/12 11:50:17;;;;;;;9.05;7.78;;;;;;;24.48;100.00;100294.81;1624528;87;21146;-82
2022/06/12 11:53:23;;;;;;;11.38;7.35;;;;;;;24.01;100.00;100279.65;1622154;87;21150;-83
2022/06/12 11:56:28;;;;;;;8.85;7.90;;;;;;;23.60;100.00;100268.36;1624251;88;20964;-82
2022/06/12 11:59:23;;;;;;;8.15;7.35;;;;;;;23.26;100.00;100253.02;1624391;87;21063;-82
2022/06/12 12:02:31;;;;;;;9.70;7.08;;;;;;;22.97;100.00;100257.23;1624450;88;21135;-81
2022/06/12 12:05:45;;;;;;;8.25;7.45;;;;;;;22.65;100.00;100258.89;1624243;88;21107;-82
2022/06/12 12:08:26;;;;;;;11.50;7.97;;;;;;;22.30;100.00;100260.34;1624076;88;22286;-81